Logo AVAMET
Benvolgut visitant, si us plau, ingressa Recuperar contrasenya

Xàtiva Plaça de Bous

Dades diàries. Acumulats / Últims 30 dies disponibles

Data Temperatura (°C) Humitat rel. (%) Pressió rel. (hPa) Vent (km/h) Precipitació
Mínima Mitjana Màxima Amplitud
tèrmica
Mínima Mitjana Màxima Mínima Mitjana Màxima Predom. Mitjana Ràfega
màxima
Total
(mm)
Índex-n
Mínima Mitjana Màxima Mínima Mitjana Màxima n
0 a 1
P0 max
mm 5'
Dades mensuals acumulades fins l'últim dia disponible
01/2020 1,9 5,2 8,6 10,3 7,5 15,4 20,0 18,1 31 73 97 1.012 1.026 1.035   47,0 332,0
Dades anuals acumulades fins l'últim dia disponible
2020 1,9 5,2 8,6 10,3 7,5 15,4 20,0 18,1 31 73 97 1.012 1.026 1.035   47,0 332,0
Últims 30 dies disponibles
27-01-2020 6,8     11,5     16,2 9,4 48 66 83 1.021 1.024 1.026 30,0 0,0
26-01-2020 8,5     12,5     16,5 8,0 45 71 96 1.018 1.022 1.025 26,0 0,0
25-01-2020 8,6     10,7     12,8 4,2 83 89 95 1.017 1.019 1.021 6,0 0,2
24-01-2020 6,7     9,3     12,0 5,3 84 90 95 1.020 1.022 1.023 10,0 0,0
23-01-2020 4,5     9,2     14,0 9,5 73 84 94 1.019 1.021 1.023 10,0 0,0
22-01-2020 6,4     9,4     12,5 6,1 81 89 97 1.017 1.019 1.020 19,0 0,0
21-01-2020 6,7     8,8     10,8 4,1 92 94 96 1.012 1.016 1.020 34,0 104,8
20-01-2020 2,9     5,2     7,5 4,6 88 92 95 1.018 1.020 1.021 46,0 148,4
19-01-2020 5,9     10,1     14,3 8,4 64 79 93 1.015 1.018 1.020 47,0 78,4
18-01-2020 8,5     13,1     17,6 9,1 47 63 78 1.019 1.026 1.033 26,0 0,0
17-01-2020 6,8     12,3     17,9 11,1 42 62 82 1.028 1.031 1.033 41,0 0,0
16-01-2020 6,5     13,2     20,0 13,5 49 66 83 1.026 1.028 1.030 11,0 0,0
15-01-2020 5,5     12,1     18,7 13,2 41 60 79 1.024 1.026 1.028 15,0 0,0
14-01-2020 4,6     11,3     18,1 13,5 31 54 76 1.021 1.023 1.024 15,0 0,0
13-01-2020 1,9     10,2     18,5 16,6 33 58 83 1.022 1.027 1.031 19,0 0,0
12-01-2020 2,1     8,8     15,5 13,4 31 58 85 1.029 1.031 1.032 8,0 0,0
11-01-2020 4,2     9,7     15,2 11,0 49 70 90 1.029 1.031 1.033 11,0 0,0
10-01-2020 6,4     10,8     15,2 8,8 46 67 87 1.023 1.027 1.030 32,0 0,2
09-01-2020 4,9     10,7     16,4 11,5 58 76 94 1.024 1.028 1.031 23,0 0,0
08-01-2020 4,5     9,0     13,5 9,0 60 77 93 1.028 1.030 1.032 17,0 0,0
07-01-2020 3,3     9,9     16,6 13,3 44 68 92 1.028 1.031 1.033 11,0 0,0
06-01-2020 6,5     11,5     16,5 10,0 52 72 91 1.028 1.030 1.031 8,0 0,0
05-01-2020 4,0     11,3     18,7 14,7 47 69 90 1.027 1.030 1.032 6,0 0,0
04-01-2020 3,7     9,8     15,9 12,2 53 73 93 1.032 1.034 1.035 11,0 0,0
03-01-2020 3,1     9,6     16,0 12,9 53 73 92 1.030 1.032 1.034 15,0 0,0
02-01-2020 3,0     9,1     15,1 12,1 62 78 94 1.030 1.032 1.034 11,0 0,0
01-01-2020 4,3     9,3     14,4 10,1 62 77 92 1.031 1.033 1.034 11,0 0,0
31-12-2019 4,0     9,7     15,3 11,3 63 78 92 1.032 1.034 1.036 8,0 0,0
30-12-2019 7,4     11,2     15,0 7,6 62 76 89 1.032 1.034 1.035 7,0 0,0
29-12-2019 7,2     11,3     15,4 8,2 64 78 91 1.030 1.033 1.035 19,0 0,0
Últims 13 mesos disponibles
12/2019 4,0 9,7 17,5 13,9 11,6 18,1 25,0 21,0 46 68 91 1.004 1.019 1.034 69,0 139,8
11/2019 3,9 11,5 21,0 15,3 14,6 19,0 26,8 22,9 45 57 73 1.000 1.011 1.019 45,0 8,2
10/2019 9,9 15,3 19,5 20,5 15,6 25,6 33,6 23,7 43 64 87 1.009 1.017 1.022 37,0 48,6
09/2019 14,5 19,5 23,0 24,2 20,4 28,9 36,6 22,1 39 68 89 1.011 1.017 1.024 47,0 88,2
08/2019 17,5 21,8 26,4 27,8 28,4 33,8 41,6 24,1 47 62 74 1.010 1.015 1.020 32,0 7,2
07/2019 20,6 22,3 25,9 28,4 28,9 34,5 39,8 19,2 46 58 73 1.005 1.013 1.020 52,0 2,2
06/2019 12,6 17,6 22,0 23,9 22,6 30,2 39,3 26,7 40 58 71 1.009 1.015 1.021 54,0 0,0
05/2019 8,2 14,2 21,4 20,0 19,0 25,9 32,1 23,9 42 61 81 1.006 1.015 1.023 52,0 19,4
04/2019 8,2 11,2 15,4 15,7 13,1 20,2 28,8 20,6 46 63 94 1.002 1.013 1.025 47,0 151,2
03/2019 4,6 8,8 13,2 15,0 10,7 21,2 27,7 23,1 38 53 86 1.016 1.023 1.030 41,0 54,2
02/2019 2,5 6,4 10,8 12,6 13,0 18,8 25,8 23,3 36 59 77 997 1.025 1.034 60,0 0,0
01/2019 -1,1 5,4 13,0 11,1 11,6 16,8 21,7 22,8 41 56 70 1.004 1.020 1.031 58,0 0,4
12/2018 3,1 7,4 12,4 13,2 13,4 19,1 25,6 22,5 44 65 82 1.010 1.025 1.032 45,0 12,4
Tots els anys disponibles
2019 -1,1 13,8 26,4 19,1 10,7 24,5 41,6 42,7 36 61 94 997 1.017 1.034 69,0 519,4
2018 1,2 14,0 25,2 19,0 7,5 24,1 39,1 37,9 36 62 94 993 1.016 1.035 65,0 526,4
Temperatura (°C)
Humitat relativa (%)
Velocitat del vent i ràfega màxima (km/h)
Direcció del vent (°)
Pressió (hPa)
Precipitació (mm)
Nota sobre les dades: s'avisa a l'usuari de la provisionalitat i no oficialitat d'aquestes dades
Logo AVAMET blanc
Web allotjada a Sollutia
Llicència de Creative CommonsLa web d'AVAMET i els seus continguts estan subjectes a una llicència de
Reconeixement - No Comercial - Compartir igual
Últimes estacions: Xixona - Els Ameradors (Soci), Agres - El Tossal (Soci), Xàbia - Bevenguts (MeteoXàbia), Llíria (Aj. Soci/Inforatge), Orihuela - Lo Capitán, Cox & Guardamar del Segura - horta (Meteorihuela), l'Alcúdia - Carriona & el Real de Gandia (Inforatge), Benicàssim - les Vil·les (Soci),  l'Alfàs del Pi - l'Albir (Soci), - - -